Terminal Aerodrome Forecast
Issued by NWS

Home | Current Version | Previous Version | Text Only | Print | Product List | Glossary On
Versions: 1 2 3 4 5 6 7 8 9 10 11 12 13 14 15 16 17 18 19 20 21 22 23 24 25 26 27 28 29 30 31 32 33 34
000
FTUS45 KGJT 231758 CCA
TAFRIL
TAF COR
KRIL 231758Z 2318/2418 07004KT P6SM VCSH SCT030 OVC050
      TEMPO 2318/2320 3SM -SHRASN BR OVC035
     FM232000 24013G21KT 6SM -SHRASN SCT025 OVC040
     FM232200 24018G25KT 3SM -SHRASN OVC028
     FM240300 22009KT 4SM -SHSN OVC035
     FM240700 24005KT P6SM VCFG BKN050
     FM241200 25005KT P6SM VCFG OVC025=

USA.gov is the U.S. government's official web portal to all federal, state and local government web resources and services.